createdAt,value
2018-07-06T00:00:03.920Z,19.5
2018-07-06T00:00:18.035Z,19.5
2018-07-06T00:00:28.804Z,19.5
2018-07-06T00:00:39.455Z,19.5
2018-07-06T00:00:51.705Z,19.5
2018-07-06T00:01:04.525Z,19.5
2018-07-06T00:01:15.294Z,19.5
2018-07-06T00:01:26.344Z,19.5
2018-07-06T00:01:37.378Z,19.5
2018-07-06T00:01:48.772Z,19.5
2018-07-06T00:02:00.549Z,19.5
2018-07-06T00:02:16.867Z,19.4444444444
2018-07-06T00:02:27.721Z,19.5
2018-07-06T00:02:42.222Z,19.5
2018-07-06T00:02:55.100Z,19.5
2018-07-06T00:03:09.116Z,19.5
2018-07-06T00:03:21.697Z,19.5
2018-07-06T00:03:34.618Z,19.5
2018-07-06T00:03:48.346Z,19.5
2018-07-06T00:04:01.239Z,19.5
2018-07-06T00:04:14.179Z,19.5
2018-07-06T00:04:26.524Z,19.5
2018-07-06T00:04:39.317Z,19.5
2018-07-06T00:04:51.536Z,19.5
2018-07-06T00:05:04.161Z,19.5
2018-07-06T00:05:17.209Z,19.5
2018-07-06T00:05:29.890Z,19.5
2018-07-06T00:05:43.377Z,19.5
2018-07-06T00:05:56.297Z,19.5
2018-07-06T00:06:09.378Z,19.5
2018-07-06T00:06:22.735Z,19.5
2018-07-06T00:06:35.153Z,19.5
2018-07-06T00:06:48.582Z,19.5
2018-07-06T00:07:01.265Z,19.5
2018-07-06T00:07:15.190Z,19.5
2018-07-06T00:07:27.650Z,19.5
2018-07-06T00:07:39.439Z,19.5
2018-07-06T00:07:52.615Z,19.5
2018-07-06T00:08:04.894Z,19.5
2018-07-06T00:08:17.905Z,19.5
2018-07-06T00:08:31.282Z,19.5
2018-07-06T00:08:43.432Z,19.5
2018-07-06T00:08:55.551Z,19.5
2018-07-06T00:09:06.607Z,19.5
2018-07-06T00:09:17.610Z,19.5
2018-07-06T00:09:31.586Z,19.4444444444
2018-07-06T00:09:43.379Z,19.5
2018-07-06T00:09:57.189Z,19.5
2018-07-06T00:10:08.943Z,19.5
2018-07-06T00:10:21.445Z,19.5
2018-07-06T00:10:32.857Z,19.5
2018-07-06T00:10:44.923Z,19.5
2018-07-06T00:10:56.563Z,19.5
2018-07-06T00:11:09.201Z,19.5
2018-07-06T00:11:21.831Z,19.5
2018-07-06T00:11:33.911Z,19.5
2018-07-06T00:11:45.313Z,19.5
2018-07-06T00:11:58.973Z,19.5
2018-07-06T00:12:11.212Z,19.5
2018-07-06T00:12:24.240Z,19.5
2018-07-06T00:12:36.959Z,19.5
2018-07-06T00:12:48.143Z,19.5
2018-07-06T00:13:01.879Z,19.5
2018-07-06T00:13:14.385Z,19.5
2018-07-06T00:13:28.252Z,19.5
2018-07-06T00:13:41.775Z,19.5
2018-07-06T00:13:54.213Z,19.5
2018-07-06T00:14:07.885Z,19.5
2018-07-06T00:14:21.875Z,19.4444444444
2018-07-06T00:14:36.134Z,19.5
2018-07-06T00:14:48.699Z,19.5
2018-07-06T00:15:01.612Z,19.5
2018-07-06T00:15:14.935Z,19.5
2018-07-06T00:15:26.896Z,19.4444444444
2018-07-06T00:15:38.768Z,19.4444444444
2018-07-06T00:15:52.199Z,19.4444444444
2018-07-06T00:16:04.694Z,19.5
2018-07-06T00:16:17.208Z,19.4444444444
2018-07-06T00:16:30.246Z,19.5
2018-07-06T00:16:41.889Z,19.5
2018-07-06T00:16:54.640Z,19.4444444444
2018-07-06T00:17:06.787Z,19.5
2018-07-06T00:17:20.121Z,19.4444444444
2018-07-06T00:17:32.466Z,19.4444444444
2018-07-06T00:17:44.730Z,19.4444444444
2018-07-06T00:17:57.067Z,19.5
2018-07-06T00:18:10.655Z,19.4444444444
2018-07-06T00:18:23.029Z,19.4444444444
2018-07-06T00:18:35.803Z,19.5
2018-07-06T00:18:48.966Z,19.5
2018-07-06T00:19:00.104Z,19.4444444444
2018-07-06T00:19:13.495Z,19.5
2018-07-06T00:19:25.989Z,19.4444444444
2018-07-06T00:19:38.764Z,19.5
2018-07-06T00:19:51.227Z,19.4444444444
2018-07-06T00:20:02.859Z,19.4444444444
2018-07-06T00:20:16.447Z,19.5
2018-07-06T00:20:28.447Z,19.4444444444
2018-07-06T00:20:41.235Z,19.5
2018-07-06T00:20:54.189Z,19.4444444444
2018-07-06T00:21:06.382Z,19.5
2018-07-06T00:21:20.214Z,19.5
2018-07-06T00:21:31.452Z,19.5
2018-07-06T00:21:44.423Z,19.5
2018-07-06T00:21:57.525Z,19.5
2018-07-06T00:22:09.600Z,19.5
2018-07-06T00:22:22.392Z,19.4444444444
2018-07-06T00:22:34.866Z,19.5
2018-07-06T00:22:47.523Z,19.5
2018-07-06T00:23:00.308Z,19.5
2018-07-06T00:23:13.030Z,19.5
2018-07-06T00:23:26.265Z,19.4444444444
2018-07-06T00:23:38.239Z,19.5
2018-07-06T00:23:50.757Z,19.4444444444
2018-07-06T00:24:03.426Z,19.4444444444
2018-07-06T00:24:16.209Z,19.4444444444
2018-07-06T00:24:29.293Z,19.4444444444
2018-07-06T00:24:41.409Z,19.4444444444
2018-07-06T00:24:54.538Z,19.4444444444
2018-07-06T00:25:07.693Z,19.4444444444
2018-07-06T00:25:19.831Z,19.4444444444
2018-07-06T00:25:32.689Z,19.3888888889
2018-07-06T00:25:46.241Z,19.3888888889
2018-07-06T00:25:59.323Z,19.3888888889
2018-07-06T00:26:12.461Z,19.3888888889
2018-07-06T00:26:24.171Z,19.3333333333
2018-07-06T00:26:34.959Z,19.3888888889
2018-07-06T00:26:46.014Z,19.3888888889
2018-07-06T00:26:57.868Z,19.3333333333
2018-07-06T00:27:10.142Z,19.3333333333
2018-07-06T00:27:21.950Z,19.3333333333
2018-07-06T00:27:32.265Z,19.3333333333
2018-07-06T00:27:42.681Z,19.2777777778
2018-07-06T00:27:53.074Z,19.3333333333
2018-07-06T00:28:03.824Z,19.2777777778
2018-07-06T00:28:15.397Z,19.3333333333
2018-07-06T00:28:28.610Z,19.2777777778
2018-07-06T00:28:45.068Z,19.2777777778
2018-07-06T00:29:07.886Z,19.2777777778
2018-07-06T00:29:43.505Z,19.2222222222
2018-07-06T00:30:44.809Z,19.1666666667
2018-07-06T00:31:56.449Z,19.1666666667
2018-07-06T00:32:07.129Z,19.1666666667
2018-07-06T00:32:17.697Z,19.1666666667
2018-07-06T00:32:28.341Z,19.1666666667
2018-07-06T00:32:39.203Z,19.1666666667
2018-07-06T00:32:50.863Z,19.1666666667
2018-07-06T00:33:04.033Z,19.1111111111
2018-07-06T00:33:20.736Z,19.1111111111
2018-07-06T00:33:43.661Z,19.1111111111
2018-07-06T00:34:19.423Z,19.0555555556
2018-07-06T00:35:20.743Z,19
2018-07-06T00:36:30.880Z,19
2018-07-06T00:37:41.033Z,19
2018-07-06T00:38:51.177Z,18.9444444444
2018-07-06T00:40:01.274Z,18.9444444444
2018-07-06T00:41:13.948Z,18.8888888889
2018-07-06T00:41:26.372Z,18.8888888889
2018-07-06T00:41:39.696Z,18.8888888889
2018-07-06T00:41:52.258Z,18.8888888889
2018-07-06T00:42:05.285Z,18.8888888889
2018-07-06T00:42:18.682Z,18.8888888889
2018-07-06T00:42:30.819Z,18.8888888889
2018-07-06T00:42:43.556Z,18.8333333333
2018-07-06T00:42:56.089Z,18.8333333333
2018-07-06T00:43:08.334Z,18.8888888889
2018-07-06T00:43:21.329Z,18.8333333333
2018-07-06T00:43:34.054Z,18.8333333333
2018-07-06T00:43:47.432Z,18.8333333333
2018-07-06T00:43:59.510Z,18.8333333333
2018-07-06T00:44:12.426Z,18.8333333333
2018-07-06T00:44:24.401Z,18.8333333333
2018-07-06T00:44:36.882Z,18.8333333333
2018-07-06T00:44:49.944Z,18.8333333333
2018-07-06T00:45:02.708Z,18.8333333333
2018-07-06T00:45:14.896Z,18.8333333333
2018-07-06T00:45:27.463Z,18.7777777778
2018-07-06T00:45:40.026Z,18.7777777778
2018-07-06T00:45:53.105Z,18.8333333333
2018-07-06T00:46:05.717Z,18.7777777778
2018-07-06T00:46:17.846Z,18.7777777778
2018-07-06T00:46:30.538Z,18.7777777778
2018-07-06T00:46:43.146Z,18.7777777778
2018-07-06T00:46:55.563Z,18.7777777778
2018-07-06T00:47:08.571Z,18.7777777778
2018-07-06T00:47:21.438Z,18.7222222222
2018-07-06T00:47:34.312Z,18.7222222222
2018-07-06T00:47:46.588Z,18.7777777778
2018-07-06T00:47:59.062Z,18.7222222222
2018-07-06T00:48:11.651Z,18.7222222222
2018-07-06T00:48:24.309Z,18.7222222222
2018-07-06T00:48:37.041Z,18.7222222222
2018-07-06T00:48:50.391Z,18.7222222222
2018-07-06T00:49:02.196Z,18.7222222222
2018-07-06T00:49:15.199Z,18.6666666667
2018-07-06T00:49:27.809Z,18.6666666667
2018-07-06T00:49:40.368Z,18.6666666667
2018-07-06T00:49:52.919Z,18.6666666667
2018-07-06T00:50:05.262Z,18.6666666667
2018-07-06T00:50:17.396Z,18.6666666667
2018-07-06T00:50:30.325Z,18.6666666667
2018-07-06T00:50:42.952Z,18.6666666667
2018-07-06T00:50:55.807Z,18.6666666667
2018-07-06T00:51:08.791Z,18.6666666667
2018-07-06T00:51:21.962Z,18.6111111111
2018-07-06T00:51:35.062Z,18.6111111111
2018-07-06T00:51:47.523Z,18.6666666667
2018-07-06T00:51:59.465Z,18.6111111111
2018-07-06T00:52:13.331Z,18.6666666667
2018-07-06T00:52:26.915Z,18.6111111111
2018-07-06T00:52:38.331Z,18.6111111111
2018-07-06T00:52:50.862Z,18.5555555556
2018-07-06T00:53:04.157Z,18.6111111111
2018-07-06T00:53:16.528Z,18.6111111111
2018-07-06T00:53:29.850Z,18.6111111111
2018-07-06T00:53:42.716Z,18.6111111111
2018-07-06T00:53:56.340Z,18.6111111111
2018-07-06T00:54:08.922Z,18.5555555556
2018-07-06T00:54:20.642Z,18.6111111111
2018-07-06T00:54:31.933Z,18.5555555556
2018-07-06T00:54:42.823Z,18.5555555556
2018-07-06T00:54:54.561Z,18.5555555556
2018-07-06T00:55:05.848Z,18.5555555556
2018-07-06T00:55:17.286Z,18.5555555556
2018-07-06T00:55:28.278Z,18.5555555556
2018-07-06T00:55:40.505Z,18.5555555556
2018-07-06T00:55:51.337Z,18.5555555556
2018-07-06T00:56:01.884Z,18.5555555556
2018-07-06T00:56:12.548Z,18.5555555556
2018-07-06T00:56:24.591Z,18.5555555556
2018-07-06T00:56:35.624Z,18.5555555556
2018-07-06T00:56:46.584Z,18.5555555556
2018-07-06T00:56:58.215Z,18.5555555556
2018-07-06T00:57:09.857Z,18.5555555556
2018-07-06T00:57:20.610Z,18.5555555556
2018-07-06T00:57:30.959Z,18.5555555556
2018-07-06T00:57:41.451Z,18.5555555556
2018-07-06T00:57:52.312Z,18.5555555556
2018-07-06T00:58:03.869Z,18.5555555556
2018-07-06T00:58:17.068Z,18.5555555556
2018-07-06T00:58:33.539Z,18.5555555556
2018-07-06T00:58:56.800Z,18.5555555556
2018-07-06T00:59:32.390Z,18.5555555556
2018-07-06T01:00:33.661Z,18.5555555556
2018-07-06T01:01:43.857Z,18.5
2018-07-06T01:01:55.607Z,18.5
2018-07-06T01:02:06.488Z,18.5
2018-07-06T01:02:16.947Z,18.5
2018-07-06T01:02:27.804Z,18.4444444444
2018-07-06T01:02:39.487Z,18.4444444444
2018-07-06T01:02:52.679Z,18.4444444444
2018-07-06T01:03:09.128Z,18.4444444444
2018-07-06T01:03:31.933Z,18.4444444444
2018-07-06T01:04:07.867Z,18.3888888889
2018-07-06T01:05:09.078Z,18.3333333333
2018-07-06T01:06:19.067Z,18.3333333333
2018-07-06T01:07:29.074Z,18.2777777778
2018-07-06T01:08:39.104Z,18.2777777778
2018-07-06T01:09:49.105Z,18.2222222222
2018-07-06T01:10:59.170Z,18.2222222222
2018-07-06T01:12:09.240Z,18.1666666667
2018-07-06T01:13:19.307Z,18.1666666667
2018-07-06T01:14:29.393Z,18.1666666667
2018-07-06T01:15:39.513Z,18.1666666667
2018-07-06T01:16:49.565Z,18.1666666667
2018-07-06T01:17:59.617Z,18.1111111111
2018-07-06T01:19:09.605Z,18.0555555556
2018-07-06T01:20:19.715Z,18.1111111111
2018-07-06T01:21:33.144Z,18.0555555556
2018-07-06T01:21:45.347Z,18.0555555556
2018-07-06T01:21:58.420Z,18
2018-07-06T01:22:11.414Z,18
2018-07-06T01:22:25.421Z,18
2018-07-06T01:22:36.413Z,18
2018-07-06T01:22:46.825Z,18
2018-07-06T01:22:58.255Z,18
2018-07-06T01:23:08.790Z,18
2018-07-06T01:23:19.268Z,18
2018-07-06T01:23:29.753Z,18
2018-07-06T01:23:40.757Z,17.9444444444
2018-07-06T01:23:52.451Z,17.9444444444
2018-07-06T01:24:06.617Z,17.9444444444
2018-07-06T01:24:17.750Z,17.9444444444
2018-07-06T01:24:28.270Z,17.9444444444
2018-07-06T01:24:38.706Z,17.9444444444
2018-07-06T01:24:49.602Z,17.8888888889
2018-07-06T01:25:01.231Z,17.8888888889
2018-07-06T01:25:16.698Z,17.8888888889
2018-07-06T01:25:28.273Z,17.8888888889
2018-07-06T01:25:40.831Z,17.8888888889
2018-07-06T01:25:52.437Z,17.8333333333
2018-07-06T01:26:03.493Z,17.8333333333
2018-07-06T01:26:15.669Z,17.8888888889
2018-07-06T01:26:27.704Z,17.8333333333
2018-07-06T01:26:39.947Z,17.8333333333
2018-07-06T01:26:50.810Z,17.8333333333
2018-07-06T01:27:01.645Z,17.8333333333
2018-07-06T01:27:12.139Z,17.8333333333
2018-07-06T01:27:23.030Z,17.8333333333
2018-07-06T01:27:34.728Z,17.7777777778
2018-07-06T01:27:48.234Z,17.8333333333
2018-07-06T01:28:05.218Z,17.7777777778
2018-07-06T01:28:28.632Z,17.7777777778
2018-07-06T01:29:04.242Z,17.7777777778
2018-07-06T01:30:05.461Z,17.7777777778
2018-07-06T01:31:15.713Z,17.7777777778
2018-07-06T01:32:25.988Z,17.7222222222
2018-07-06T01:33:35.990Z,17.7222222222
2018-07-06T01:34:46.007Z,17.7222222222
2018-07-06T01:35:56.411Z,17.7222222222
2018-07-06T01:37:06.545Z,17.7777777778
2018-07-06T01:38:16.531Z,17.7777777778
2018-07-06T01:39:26.570Z,17.7777777778
2018-07-06T01:40:36.571Z,17.7777777778
2018-07-06T01:41:46.564Z,17.7777777778
2018-07-06T01:42:56.645Z,17.7777777778
2018-07-06T01:44:06.664Z,17.7222222222
2018-07-06T01:45:16.680Z,17.7222222222
2018-07-06T01:46:29.217Z,17.6666666667
2018-07-06T01:46:41.119Z,17.6111111111
2018-07-06T01:46:52.996Z,17.6111111111
2018-07-06T01:47:05.209Z,17.6111111111
2018-07-06T01:47:17.040Z,17.6111111111
2018-07-06T01:47:28.681Z,17.6111111111
2018-07-06T01:47:39.696Z,17.6111111111
2018-07-06T01:47:51.935Z,17.6111111111
2018-07-06T01:48:03.716Z,17.6111111111
2018-07-06T01:48:15.648Z,17.5555555556
2018-07-06T01:48:26.037Z,17.6111111111
2018-07-06T01:48:38.074Z,17.6111111111
2018-07-06T01:48:49.984Z,17.5555555556
2018-07-06T01:49:00.500Z,17.5555555556
2018-07-06T01:49:12.408Z,17.5555555556
2018-07-06T01:49:23.029Z,17.5555555556
2018-07-06T01:49:34.012Z,17.5555555556
2018-07-06T01:49:45.360Z,17.5555555556
2018-07-06T01:49:57.260Z,17.6111111111
2018-07-06T01:50:08.329Z,17.5555555556
2018-07-06T01:50:20.054Z,17.5555555556
2018-07-06T01:50:30.717Z,17.5555555556
2018-07-06T01:50:43.000Z,17.5555555556
2018-07-06T01:50:53.715Z,17.5555555556
2018-07-06T01:51:04.793Z,17.5555555556
2018-07-06T01:51:17.403Z,17.5555555556
2018-07-06T01:51:28.641Z,17.5555555556
2018-07-06T01:51:40.156Z,17.5555555556
2018-07-06T01:51:51.028Z,17.5
2018-07-06T01:52:02.470Z,17.5555555556
2018-07-06T01:52:15.222Z,17.5555555556
2018-07-06T01:52:27.414Z,17.5555555556
2018-07-06T01:52:37.896Z,17.5555555556
2018-07-06T01:52:49.028Z,17.5555555556
2018-07-06T01:53:00.960Z,17.5555555556
2018-07-06T01:53:12.777Z,17.5555555556
2018-07-06T01:53:24.701Z,17.5555555556
2018-07-06T01:53:35.537Z,17.5
2018-07-06T01:53:47.576Z,17.5555555556
2018-07-06T01:53:58.391Z,17.5555555556
2018-07-06T01:54:09.184Z,17.5555555556
2018-07-06T01:54:20.734Z,17.5555555556
2018-07-06T01:54:32.614Z,17.5
2018-07-06T01:54:44.208Z,17.5
2018-07-06T01:54:55.231Z,17.5
2018-07-06T01:55:06.653Z,17.5
2018-07-06T01:55:19.745Z,17.5
2018-07-06T01:55:30.460Z,17.5
2018-07-06T01:55:40.904Z,17.5
2018-07-06T01:55:51.436Z,17.5
2018-07-06T01:56:02.762Z,17.4444444444
2018-07-06T01:56:14.677Z,17.5
2018-07-06T01:56:28.050Z,17.5
2018-07-06T01:56:44.498Z,17.4444444444
2018-07-06T01:57:07.269Z,17.5
2018-07-06T01:57:42.899Z,17.4444444444
2018-07-06T01:58:44.122Z,17.3888888889
2018-07-06T01:59:54.146Z,17.3888888889
2018-07-06T02:01:04.243Z,17.3333333333
2018-07-06T02:02:14.335Z,17.3333333333
2018-07-06T02:03:24.348Z,17.2777777778
2018-07-06T02:04:34.495Z,17.2777777778
2018-07-06T02:05:44.638Z,17.2777777778
2018-07-06T02:06:54.645Z,17.2777777778
2018-07-06T02:08:04.639Z,17.2777777778
2018-07-06T02:09:14.621Z,17.2777777778
2018-07-06T02:10:24.727Z,17.2222222222
2018-07-06T02:11:35.280Z,17.1666666667
2018-07-06T02:12:45.866Z,17.1666666667
2018-07-06T02:13:56.067Z,17.1666666667
2018-07-06T02:15:06.149Z,17.1666666667
2018-07-06T02:16:16.757Z,17.1111111111
2018-07-06T02:17:30.564Z,17.1111111111
2018-07-06T02:17:43.169Z,17.1111111111
2018-07-06T02:17:54.620Z,17.1111111111
2018-07-06T02:18:05.140Z,17.1111111111
2018-07-06T02:18:16.065Z,17.1111111111
2018-07-06T02:18:27.663Z,17.1111111111
2018-07-06T02:18:39.242Z,17.1666666667
2018-07-06T02:18:52.443Z,17.1666666667
2018-07-06T02:19:09.205Z,17.1111111111
2018-07-06T02:19:32.315Z,17.1111111111
2018-07-06T02:20:08.019Z,17.1111111111
2018-07-06T02:21:09.181Z,17.1111111111
2018-07-06T02:22:19.237Z,17.0555555556
2018-07-06T02:23:29.501Z,17.0555555556
2018-07-06T02:24:39.656Z,17.0555555556
2018-07-06T02:25:49.689Z,17.0555555556
2018-07-06T02:26:59.766Z,17.0555555556
2018-07-06T02:28:09.781Z,17.0555555556
2018-07-06T02:29:20.010Z,17.0555555556
2018-07-06T02:30:30.799Z,17.0555555556
2018-07-06T02:31:41.446Z,17.0555555556
2018-07-06T02:31:53.092Z,17.0555555556
2018-07-06T02:32:03.526Z,17.0555555556
2018-07-06T02:32:14.565Z,17.0555555556
2018-07-06T02:32:25.210Z,17.0555555556
2018-07-06T02:32:36.640Z,17.0555555556
2018-07-06T02:32:49.097Z,17.0555555556
2018-07-06T02:33:02.845Z,17.1111111111
2018-07-06T02:33:20.646Z,17.0555555556
2018-07-06T02:33:43.490Z,17.0555555556
2018-07-06T02:34:19.818Z,17.1111111111
2018-07-06T02:35:21.065Z,17.0555555556
2018-07-06T02:36:31.497Z,17.0555555556
2018-07-06T02:37:41.573Z,17.0555555556
2018-07-06T02:38:54.701Z,17.0555555556
2018-07-06T02:39:07.499Z,17.0555555556
2018-07-06T02:39:19.957Z,17.0555555556
2018-07-06T02:39:30.431Z,17.0555555556
2018-07-06T02:39:40.915Z,17.0555555556
2018-07-06T02:39:51.466Z,17
2018-07-06T02:40:02.438Z,17
2018-07-06T02:40:14.322Z,17
2018-07-06T02:40:27.768Z,17
2018-07-06T02:40:46.732Z,17.0555555556
2018-07-06T02:41:01.031Z,17
2018-07-06T02:41:14.663Z,17
2018-07-06T02:41:28.618Z,17.0555555556
2018-07-06T02:41:42.356Z,17
2018-07-06T02:41:55.750Z,17
2018-07-06T02:42:09.766Z,17
2018-07-06T02:42:22.894Z,17
2018-07-06T02:42:34.160Z,17.0555555556
2018-07-06T02:42:48.200Z,17
2018-07-06T02:43:00.758Z,17
2018-07-06T02:43:14.015Z,17.0555555556
2018-07-06T02:43:27.165Z,17
2018-07-06T02:43:38.142Z,17.0555555556
2018-07-06T02:43:51.426Z,17
2018-07-06T02:44:04.793Z,17
2018-07-06T02:44:18.952Z,17
2018-07-06T02:44:32.306Z,17
2018-07-06T02:44:45.113Z,17
2018-07-06T02:44:58.075Z,17
2018-07-06T02:45:11.375Z,17
2018-07-06T02:45:24.423Z,17
2018-07-06T02:45:38.262Z,17.0555555556
2018-07-06T02:45:50.389Z,17
2018-07-06T02:46:02.812Z,16.9444444444
2018-07-06T02:46:13.623Z,16.9444444444
2018-07-06T02:46:24.293Z,17
2018-07-06T02:46:34.980Z,17
2018-07-06T02:46:46.040Z,17
2018-07-06T02:46:57.753Z,17
2018-07-06T02:47:11.111Z,17
2018-07-06T02:47:27.614Z,17
2018-07-06T02:47:51.029Z,17
2018-07-06T02:48:26.658Z,17
2018-07-06T02:49:28.705Z,17
2018-07-06T02:49:39.307Z,17
2018-07-06T02:49:50.269Z,16.9444444444
2018-07-06T02:50:01.822Z,17
2018-07-06T02:50:13.612Z,17
2018-07-06T02:50:26.774Z,17
2018-07-06T02:50:39.463Z,17
2018-07-06T02:50:51.527Z,17
2018-07-06T02:51:04.276Z,17
2018-07-06T02:51:16.736Z,17
2018-07-06T02:51:29.603Z,17
2018-07-06T02:51:42.094Z,17
2018-07-06T02:51:54.376Z,17
2018-07-06T02:52:07.647Z,17.0555555556
2018-07-06T02:52:20.485Z,17
2018-07-06T02:52:33.328Z,17
2018-07-06T02:52:45.903Z,17
2018-07-06T02:52:58.402Z,16.9444444444
2018-07-06T02:53:10.618Z,17
2018-07-06T02:53:21.530Z,17
2018-07-06T02:53:32.081Z,17
2018-07-06T02:53:42.503Z,17
2018-07-06T02:53:53.480Z,17
2018-07-06T02:54:05.093Z,17.0555555556
2018-07-06T02:54:18.498Z,17
2018-07-06T02:54:34.981Z,17
2018-07-06T02:54:57.907Z,17
2018-07-06T02:55:34.180Z,17
2018-07-06T02:56:35.503Z,17.0555555556
2018-07-06T02:57:45.614Z,17
2018-07-06T02:58:55.699Z,17.0555555556
2018-07-06T03:00:05.883Z,17.0555555556
2018-07-06T03:01:16.074Z,17.0555555556
2018-07-06T03:02:26.566Z,17.0555555556
2018-07-06T03:03:36.562Z,17.0555555556
2018-07-06T03:04:47.485Z,17.0555555556
2018-07-06T03:04:58.061Z,17.0555555556
2018-07-06T03:05:08.581Z,17.0555555556
2018-07-06T03:05:18.986Z,17.0555555556
2018-07-06T03:05:30.032Z,17.0555555556
2018-07-06T03:05:41.759Z,17.0555555556
2018-07-06T03:05:55.018Z,17.0555555556
2018-07-06T03:06:11.544Z,17.0555555556
2018-07-06T03:06:34.572Z,17.0555555556
2018-07-06T03:07:12.165Z,17.0555555556
2018-07-06T03:07:25.108Z,17.0555555556
2018-07-06T03:07:38.243Z,17.0555555556
2018-07-06T03:07:51.588Z,17.0555555556
2018-07-06T03:08:04.805Z,17.0555555556
2018-07-06T03:08:16.852Z,17.0555555556
2018-07-06T03:08:29.584Z,17.0555555556
2018-07-06T03:08:43.009Z,17.1111111111
2018-07-06T03:08:55.479Z,17.1111111111
2018-07-06T03:09:07.956Z,17.0555555556
2018-07-06T03:09:19.107Z,17.1111111111
2018-07-06T03:09:31.742Z,17.1111111111
2018-07-06T03:09:44.282Z,17.1111111111
2018-07-06T03:09:54.920Z,17.1111111111
2018-07-06T03:10:05.827Z,17.1111111111
2018-07-06T03:10:16.812Z,17.1111111111
2018-07-06T03:10:27.839Z,17.1111111111
2018-07-06T03:10:40.687Z,17.1111111111
2018-07-06T03:10:52.123Z,17.1111111111
2018-07-06T03:11:03.635Z,17.0555555556
2018-07-06T03:11:14.895Z,17.0555555556
2018-07-06T03:11:25.501Z,17.1111111111
2018-07-06T03:11:36.142Z,17.1111111111
2018-07-06T03:11:47.116Z,17.1111111111
2018-07-06T03:11:58.925Z,17.0555555556
2018-07-06T03:12:12.281Z,17.1111111111
2018-07-06T03:12:28.814Z,17.0555555556
2018-07-06T03:12:52.570Z,17.1111111111
2018-07-06T03:13:03.106Z,17.1111111111
2018-07-06T03:13:13.625Z,17.1111111111
2018-07-06T03:13:24.080Z,17.1111111111
2018-07-06T03:13:35.093Z,17.1111111111
2018-07-06T03:13:46.754Z,17.1111111111
2018-07-06T03:14:00.176Z,17.0555555556
2018-07-06T03:14:16.753Z,17.1111111111
2018-07-06T03:14:40.782Z,17.1111111111
2018-07-06T03:14:51.483Z,17.1111111111
2018-07-06T03:15:02.809Z,17.1111111111
2018-07-06T03:15:14.090Z,17.1111111111
2018-07-06T03:15:24.718Z,17.1111111111
2018-07-06T03:15:35.459Z,17.1111111111
2018-07-06T03:15:46.449Z,17.1111111111
2018-07-06T03:15:57.381Z,17.1111111111
2018-07-06T03:16:09.642Z,17.1111111111
2018-07-06T03:16:22.951Z,17.1111111111
2018-07-06T03:16:39.435Z,17.1111111111
2018-07-06T03:17:03.667Z,17.1111111111
2018-07-06T03:17:15.084Z,17.1111111111
2018-07-06T03:17:25.897Z,17.1111111111
2018-07-06T03:17:36.477Z,17.1666666667
2018-07-06T03:17:47.245Z,17.1111111111
2018-07-06T03:17:58.832Z,17.1111111111
2018-07-06T03:18:11.091Z,17.1666666667
2018-07-06T03:18:26.021Z,17.1666666667
2018-07-06T03:18:42.596Z,17.1111111111
2018-07-06T03:19:05.522Z,17.1666666667
2018-07-06T03:19:41.473Z,17.1666666667
2018-07-06T03:20:43.504Z,17.1111111111
2018-07-06T03:20:54.173Z,17.1111111111
2018-07-06T03:21:05.703Z,17.1111111111
2018-07-06T03:21:17.250Z,17.1111111111
2018-07-06T03:21:27.904Z,17.1111111111
2018-07-06T03:21:38.513Z,17.1111111111
2018-07-06T03:21:49.155Z,17.1111111111
2018-07-06T03:22:00.086Z,17.1111111111
2018-07-06T03:22:11.895Z,17.1111111111
2018-07-06T03:22:25.924Z,17.1111111111
2018-07-06T03:22:36.667Z,17.1111111111
2018-07-06T03:22:47.276Z,17.1111111111
2018-07-06T03:22:58.863Z,17.1111111111
2018-07-06T03:23:09.561Z,17.1666666667
2018-07-06T03:23:21.082Z,17.1111111111
2018-07-06T03:23:32.595Z,17.1111111111
2018-07-06T03:23:43.149Z,17.1111111111
2018-07-06T03:23:53.698Z,17.1111111111
2018-07-06T03:24:04.318Z,17.1111111111
2018-07-06T03:24:15.356Z,17.1111111111
2018-07-06T03:24:27.134Z,17.1111111111
2018-07-06T03:24:40.565Z,17.1111111111
2018-07-06T03:24:57.571Z,17.1111111111
2018-07-06T03:25:21.249Z,17.1666666667
2018-07-06T03:25:32.214Z,17.1111111111
2018-07-06T03:25:42.723Z,17.1666666667
2018-07-06T03:25:53.335Z,17.1111111111
2018-07-06T03:26:04.985Z,17.1111111111
2018-07-06T03:26:16.386Z,17.1111111111
2018-07-06T03:26:28.027Z,17.1111111111
2018-07-06T03:26:40.189Z,17.1111111111
2018-07-06T03:26:50.798Z,17.1111111111
2018-07-06T03:27:01.316Z,17.1666666667
2018-07-06T03:27:12.967Z,17.1111111111
2018-07-06T03:27:23.493Z,17.1111111111
2018-07-06T03:27:34.642Z,17.1666666667
2018-07-06T03:27:45.242Z,17.1111111111
2018-07-06T03:27:57.014Z,17.1111111111
2018-07-06T03:28:08.465Z,17.1666666667
2018-07-06T03:28:20.906Z,17.1666666667
2018-07-06T03:28:33.612Z,17.1111111111
2018-07-06T03:28:47.768Z,17.1111111111
2018-07-06T03:28:59.682Z,17.1666666667
2018-07-06T03:29:10.217Z,17.1666666667
2018-07-06T03:29:21.673Z,17.1111111111
2018-07-06T03:29:32.307Z,17.1666666667
2018-07-06T03:29:42.835Z,17.1111111111
2018-07-06T03:29:53.924Z,17.1666666667
2018-07-06T03:30:05.659Z,17.1666666667
2018-07-06T03:30:16.706Z,17.1666666667
2018-07-06T03:30:27.220Z,17.1111111111
2018-07-06T03:30:38.652Z,17.1666666667
2018-07-06T03:30:49.256Z,17.1666666667
2018-07-06T03:30:59.970Z,17.1666666667
2018-07-06T03:31:10.485Z,17.1666666667
2018-07-06T03:31:21.441Z,17.1666666667
2018-07-06T03:31:34.169Z,17.1666666667
2018-07-06T03:31:44.751Z,17.1666666667
2018-07-06T03:31:55.453Z,17.1666666667
2018-07-06T03:32:06.189Z,17.1666666667
2018-07-06T03:32:17.168Z,17.1666666667
2018-07-06T03:32:29.823Z,17.1666666667
2018-07-06T03:32:41.357Z,17.1666666667
2018-07-06T03:32:52.197Z,17.1666666667
2018-07-06T03:33:02.693Z,17.1666666667
2018-07-06T03:33:13.104Z,17.1666666667
2018-07-06T03:33:24.729Z,17.1666666667
2018-07-06T03:33:35.247Z,17.1666666667
2018-07-06T03:33:46.688Z,17.1666666667
2018-07-06T03:33:57.181Z,17.1666666667
2018-07-06T03:34:07.728Z,17.1666666667
2018-07-06T03:34:18.322Z,17.1666666667
2018-07-06T03:34:29.263Z,17.1666666667
2018-07-06T03:34:42.038Z,17.1666666667
2018-07-06T03:34:54.467Z,17.1666666667
2018-07-06T03:35:04.944Z,17.2222222222
2018-07-06T03:35:15.687Z,17.1666666667
2018-07-06T03:35:26.535Z,17.2222222222
2018-07-06T03:35:38.220Z,17.2222222222
2018-07-06T03:35:51.515Z,17.2222222222
2018-07-06T03:36:08.281Z,17.2222222222
2018-07-06T03:36:31.231Z,17.2222222222
2018-07-06T03:37:06.978Z,17.2222222222
2018-07-06T03:38:08.300Z,17.2222222222
2018-07-06T03:39:18.383Z,17.2222222222
2018-07-06T03:40:28.381Z,17.2222222222
2018-07-06T03:41:38.437Z,17.2222222222
2018-07-06T03:42:48.440Z,17.2777777778
2018-07-06T03:43:58.571Z,17.2777777778
2018-07-06T03:45:09.028Z,17.2777777778
2018-07-06T03:46:19.169Z,17.2777777778